Pueblo Of Acoma, NM (87034)

2:59 AM MDT on April 01, 2015 (GMT -0600)
RAWS | | Change Station
CLOSE
Current Station
Personal Weather Station
Location: Laguna, NM
Elevation: 5805 ft
Nearby Weather Stations
Active Advisory: Fire Weather Warning

Elev 5805 ft 35.05 °N, 107.42 °W | Updated 26 minutes ago

Clear
Clear
57 °F
Feels Like 57 °F
N
5
Wind Variable Wind from WSW
Gusts 16.0 mph

Today
High -- | Low -- °F
--% Chance of Precip.
Yesterday
High -- | Low -- °F
Precip. -- in
6:57 AM 7:31 PM
Waxing Gibbous, 91% visible
Pressure 30.08 in
Visibility 10.0 miles
Clouds Clear
Dew Point 23 °F
Humidity 27%
Rainfall in
Snow Depth Not available.
UV 0 out of 12
Pollen 10.90 out of 12
Air Quality Not available.
Flu Activity Not available.
METAR KGNT 010835Z AUTO 31003KT 10SM CLR 06/M04 A3008 RMK AO2 T00591040

More Conditions Fewer Conditions

Pressure 30.08 in
Visibility 10.0 miles
Clouds Clear
Dew Point 23 °F
Humidity 27%
Rainfall in
Snow Depth Not available.
UV 0 out of 12
Pollen 10.90 out of 12
Air Quality Not available.
Flu Activity Not available.
METAR KGNT 010835Z AUTO 31003KT 10SM CLR 06/M04 A3008 RMK AO2 T00591040

More Conditions Fewer Conditions

10-Day Weather Forecast

Almanac

Astronomy

Apr. 01, 2015 Rise Set
Actual Time
Civil Twilight
Nautical Twilight
Astronomical Twilight
Moon
Length of Visible Light
Length of Day
Tomorrow will be .
, % of the Moon is Illuminated

Today's Extremes

State Highs State Lows

Community

WunderPhotos

Upload Photos

1,809,933 photos uploaded!

WunderBlogs® & News

Nearby

Air Quality

  Air Quality AQ Index Pollutant
Not available.

Snow Depth

Station Depth Elevation

Earthquake Activity

City Distance Mag. Time & Date
Minimum magnitude displayed is 2.5.

Coastal Water Temperatures

Place Temperature

Stations

Nearby Weather Stations

Station Location Temp. Windchill Dew Point Humidity Wind Precip. Elev Updated Type
                   
Fire Weather Warning
Statement as of 3:11 PM MDT on March 31, 2015

... Red flag warning in effect from noon to 7 PM MDT Wednesday...
... Red flag warning in effect from 11 am to 9 PM MDT Thursday...

The National Weather Service in Albuquerque has issued a red flag
warning... which is in effect from noon to 7 PM MDT Wednesday. A
red flag warning has also been issued from 11 am to 9 PM MDT
Thursday.

* Area and timing... northwest Highlands both Wednesday and
Thursday afternoon/S to early evening.

* 20 foot winds... westerly 20 to 25 mph with gusts to 35 mph
Wednesday increasing to 20 to 30 mph with gusts to 45 mph
Thursday.

* Relative humidity... minimums between 11 to 15 percent Wednesday
and single digits to around 11 percent across the highest
terrain on Thursday.

* Impacts... any fires that develop will likely spread rapidly.
Outdoor burning is not recommended.

Precautionary/preparedness actions...

Please advise the appropriate officials or fire crews in the
field of this red flag warning.